sensor_id;sensor_type;location;lat;lon;timestamp;temperature;humidity
19363;DHT22;9817;50.80926400;5.16316200;2024-01-30T00:00:09;9.80;99.90
19363;DHT22;9817;50.80926400;5.16316200;2024-01-30T00:02:35;9.80;99.90
19363;DHT22;9817;50.80926400;5.16316200;2024-01-30T00:05:00;9.70;99.90
19363;DHT22;9817;50.80926400;5.16316200;2024-01-30T00:07:26;9.70;99.90
19363;DHT22;9817;50.80926400;5.16316200;2024-01-30T00:09:52;9.60;99.90
19363;DHT22;9817;50.80926400;5.16316200;2024-01-30T00:12:17;9.50;99.90
19363;DHT22;9817;50.80926400;5.16316200;2024-01-30T00:14:43;9.50;99.90
19363;DHT22;9817;50.80926400;5.16316200;2024-01-30T00:17:09;9.40;99.90
19363;DHT22;9817;50.80926400;5.16316200;2024-01-30T00:19:35;9.60;99.90
19363;DHT22;9817;50.80926400;5.16316200;2024-01-30T00:22:00;9.60;99.90
19363;DHT22;9817;50.80926400;5.16316200;2024-01-30T00:24:26;9.60;99.90
19363;DHT22;9817;50.80926400;5.16316200;2024-01-30T00:26:51;9.60;99.90
19363;DHT22;9817;50.80926400;5.16316200;2024-01-30T00:29:18;9.60;99.90
19363;DHT22;9817;50.80926400;5.16316200;2024-01-30T00:31:45;9.60;99.90
19363;DHT22;9817;50.80926400;5.16316200;2024-01-30T00:34:11;9.50;99.90
19363;DHT22;9817;50.80926400;5.16316200;2024-01-30T00:36:37;9.50;99.90
19363;DHT22;9817;50.80926400;5.16316200;2024-01-30T00:39:03;9.50;99.90
19363;DHT22;9817;50.80926400;5.16316200;2024-01-30T00:41:32;9.50;99.90
19363;DHT22;9817;50.80926400;5.16316200;2024-01-30T00:43:57;9.40;99.90
19363;DHT22;9817;50.80926400;5.16316200;2024-01-30T00:46:23;9.40;99.90
19363;DHT22;9817;50.80926400;5.16316200;2024-01-30T00:48:49;9.40;99.90
19363;DHT22;9817;50.80926400;5.16316200;2024-01-30T00:51:14;9.40;99.90
19363;DHT22;9817;50.80926400;5.16316200;2024-01-30T00:53:40;9.40;99.90
19363;DHT22;9817;50.80926400;5.16316200;2024-01-30T00:56:07;9.30;99.90
19363;DHT22;9817;50.80926400;5.16316200;2024-01-30T00:58:33;9.30;99.90
19363;DHT22;9817;50.80926400;5.16316200;2024-01-30T01:00:59;9.40;99.90
19363;DHT22;9817;50.80926400;5.16316200;2024-01-30T01:03:24;9.50;99.90
19363;DHT22;9817;50.80926400;5.16316200;2024-01-30T01:05:50;9.40;99.90
19363;DHT22;9817;50.80926400;5.16316200;2024-01-30T01:08:16;9.50;99.90
19363;DHT22;9817;50.80926400;5.16316200;2024-01-30T01:10:41;9.60;99.90
19363;DHT22;9817;50.80926400;5.16316200;2024-01-30T01:13:07;9.50;99.90
19363;DHT22;9817;50.80926400;5.16316200;2024-01-30T01:15:33;9.50;99.90
19363;DHT22;9817;50.80926400;5.16316200;2024-01-30T01:17:58;9.40;99.90
19363;DHT22;9817;50.80926400;5.16316200;2024-01-30T01:20:24;9.40;99.90
19363;DHT22;9817;50.80926400;5.16316200;2024-01-30T01:22:49;9.40;99.90
19363;DHT22;9817;50.80926400;5.16316200;2024-01-30T01:25:15;9.40;99.90
19363;DHT22;9817;50.80926400;5.16316200;2024-01-30T01:27:41;9.40;99.90
19363;DHT22;9817;50.80926400;5.16316200;2024-01-30T01:30:11;9.30;99.90
19363;DHT22;9817;50.80926400;5.16316200;2024-01-30T01:32:39;9.30;99.90
19363;DHT22;9817;50.80926400;5.16316200;2024-01-30T01:35:10;9.40;99.90
19363;DHT22;9817;50.80926400;5.16316200;2024-01-30T01:37:36;9.40;99.90
19363;DHT22;9817;50.80926400;5.16316200;2024-01-30T01:40:02;9.40;99.90
19363;DHT22;9817;50.80926400;5.16316200;2024-01-30T01:42:28;9.50;99.90
19363;DHT22;9817;50.80926400;5.16316200;2024-01-30T01:44:54;9.50;99.90
19363;DHT22;9817;50.80926400;5.16316200;2024-01-30T01:47:20;9.50;99.90
19363;DHT22;9817;50.80926400;5.16316200;2024-01-30T01:49:45;9.50;99.90
19363;DHT22;9817;50.80926400;5.16316200;2024-01-30T01:52:11;9.50;99.90
19363;DHT22;9817;50.80926400;5.16316200;2024-01-30T01:54:37;9.60;99.90
19363;DHT22;9817;50.80926400;5.16316200;2024-01-30T01:57:03;9.60;99.90
19363;DHT22;9817;50.80926400;5.16316200;2024-01-30T01:59:29;9.70;99.90
19363;DHT22;9817;50.80926400;5.16316200;2024-01-30T02:01:55;9.70;99.90
19363;DHT22;9817;50.80926400;5.16316200;2024-01-30T02:04:21;9.70;99.90
19363;DHT22;9817;50.80926400;5.16316200;2024-01-30T02:06:47;9.70;99.90
19363;DHT22;9817;50.80926400;5.16316200;2024-01-30T02:09:12;9.80;99.90
19363;DHT22;9817;50.80926400;5.16316200;2024-01-30T02:11:38;9.80;99.90
19363;DHT22;9817;50.80926400;5.16316200;2024-01-30T02:14:04;9.70;99.90
19363;DHT22;9817;50.80926400;5.16316200;2024-01-30T02:16:31;9.70;99.90
19363;DHT22;9817;50.80926400;5.16316200;2024-01-30T02:18:56;9.80;99.90
19363;DHT22;9817;50.80926400;5.16316200;2024-01-30T02:21:22;9.80;99.90
19363;DHT22;9817;50.80926400;5.16316200;2024-01-30T02:23:48;10.00;99.90
19363;DHT22;9817;50.80926400;5.16316200;2024-01-30T02:26:15;10.10;99.90
19363;DHT22;9817;50.80926400;5.16316200;2024-01-30T02:28:40;10.00;99.90
19363;DHT22;9817;50.80926400;5.16316200;2024-01-30T02:31:06;10.20;99.90
19363;DHT22;9817;50.80926400;5.16316200;2024-01-30T02:33:32;10.30;99.90
19363;DHT22;9817;50.80926400;5.16316200;2024-01-30T02:35:58;10.30;99.90
19363;DHT22;9817;50.80926400;5.16316200;2024-01-30T02:38:24;10.30;99.90
19363;DHT22;9817;50.80926400;5.16316200;2024-01-30T02:40:50;10.30;99.90
19363;DHT22;9817;50.80926400;5.16316200;2024-01-30T02:43:16;10.20;99.90
19363;DHT22;9817;50.80926400;5.16316200;2024-01-30T02:45:42;10.10;99.90
19363;DHT22;9817;50.80926400;5.16316200;2024-01-30T02:48:07;10.30;99.90
19363;DHT22;9817;50.80926400;5.16316200;2024-01-30T02:50:33;10.20;99.90
19363;DHT22;9817;50.80926400;5.16316200;2024-01-30T02:52:59;10.30;99.90
19363;DHT22;9817;50.80926400;5.16316200;2024-01-30T02:55:24;10.40;99.90
19363;DHT22;9817;50.80926400;5.16316200;2024-01-30T02:57:50;10.30;99.90
19363;DHT22;9817;50.80926400;5.16316200;2024-01-30T03:00:16;10.30;99.90
19363;DHT22;9817;50.80926400;5.16316200;2024-01-30T03:02:41;10.40;99.90
19363;DHT22;9817;50.80926400;5.16316200;2024-01-30T03:05:08;10.20;99.90
19363;DHT22;9817;50.80926400;5.16316200;2024-01-30T03:07:34;10.30;99.90
19363;DHT22;9817;50.80926400;5.16316200;2024-01-30T03:10:00;10.50;99.90
19363;DHT22;9817;50.80926400;5.16316200;2024-01-30T03:12:25;10.80;99.90
19363;DHT22;9817;50.80926400;5.16316200;2024-01-30T03:14:51;10.70;99.90
19363;DHT22;9817;50.80926400;5.16316200;2024-01-30T03:17:16;10.50;99.90
19363;DHT22;9817;50.80926400;5.16316200;2024-01-30T03:19:42;10.60;99.90
19363;DHT22;9817;50.80926400;5.16316200;2024-01-30T03:22:08;10.60;99.90
19363;DHT22;9817;50.80926400;5.16316200;2024-01-30T03:24:33;10.70;99.90
19363;DHT22;9817;50.80926400;5.16316200;2024-01-30T03:26:59;10.60;99.90
19363;DHT22;9817;50.80926400;5.16316200;2024-01-30T03:29:25;10.50;99.90
19363;DHT22;9817;50.80926400;5.16316200;2024-01-30T03:31:50;10.50;99.90
19363;DHT22;9817;50.80926400;5.16316200;2024-01-30T03:34:16;10.50;99.90
19363;DHT22;9817;50.80926400;5.16316200;2024-01-30T03:36:42;10.50;99.90
19363;DHT22;9817;50.80926400;5.16316200;2024-01-30T03:39:07;10.40;99.90
19363;DHT22;9817;50.80926400;5.16316200;2024-01-30T03:41:33;10.40;99.90
19363;DHT22;9817;50.80926400;5.16316200;2024-01-30T03:43:59;10.40;99.90
19363;DHT22;9817;50.80926400;5.16316200;2024-01-30T03:46:24;10.30;99.90
19363;DHT22;9817;50.80926400;5.16316200;2024-01-30T03:48:50;10.40;99.90
19363;DHT22;9817;50.80926400;5.16316200;2024-01-30T03:51:16;10.30;99.90
19363;DHT22;9817;50.80926400;5.16316200;2024-01-30T03:53:42;10.50;99.90
19363;DHT22;9817;50.80926400;5.16316200;2024-01-30T03:56:09;10.50;99.90
19363;DHT22;9817;50.80926400;5.16316200;2024-01-30T03:58:34;10.40;99.90
19363;DHT22;9817;50.80926400;5.16316200;2024-01-30T04:01:00;10.40;99.90
19363;DHT22;9817;50.80926400;5.16316200;2024-01-30T04:03:26;10.50;99.90
19363;DHT22;9817;50.80926400;5.16316200;2024-01-30T04:05:52;10.40;99.90
19363;DHT22;9817;50.80926400;5.16316200;2024-01-30T04:08:18;10.20;99.90
19363;DHT22;9817;50.80926400;5.16316200;2024-01-30T04:10:44;9.90;99.90
19363;DHT22;9817;50.80926400;5.16316200;2024-01-30T04:13:10;9.90;99.90
19363;DHT22;9817;50.80926400;5.16316200;2024-01-30T04:15:35;9.90;99.90
19363;DHT22;9817;50.80926400;5.16316200;2024-01-30T04:18:01;9.90;99.90
19363;DHT22;9817;50.80926400;5.16316200;2024-01-30T04:20:27;9.90;99.90
19363;DHT22;9817;50.80926400;5.16316200;2024-01-30T04:22:52;9.90;99.90
19363;DHT22;9817;50.80926400;5.16316200;2024-01-30T04:25:18;9.90;99.90
19363;DHT22;9817;50.80926400;5.16316200;2024-01-30T04:27:44;10.00;99.90
19363;DHT22;9817;50.80926400;5.16316200;2024-01-30T04:30:10;10.00;99.90
19363;DHT22;9817;50.80926400;5.16316200;2024-01-30T04:32:35;10.20;99.90
19363;DHT22;9817;50.80926400;5.16316200;2024-01-30T04:35:01;10.10;99.90
19363;DHT22;9817;50.80926400;5.16316200;2024-01-30T04:37:27;10.20;99.90
19363;DHT22;9817;50.80926400;5.16316200;2024-01-30T04:39:53;10.10;99.90
19363;DHT22;9817;50.80926400;5.16316200;2024-01-30T04:42:18;10.20;99.90
19363;DHT22;9817;50.80926400;5.16316200;2024-01-30T04:44:44;10.20;99.90
19363;DHT22;9817;50.80926400;5.16316200;2024-01-30T04:47:10;10.20;99.90
19363;DHT22;9817;50.80926400;5.16316200;2024-01-30T04:49:38;10.10;99.90
19363;DHT22;9817;50.80926400;5.16316200;2024-01-30T04:52:06;10.10;99.90
19363;DHT22;9817;50.80926400;5.16316200;2024-01-30T04:54:31;10.10;99.90
19363;DHT22;9817;50.80926400;5.16316200;2024-01-30T04:56:57;10.10;99.90
19363;DHT22;9817;50.80926400;5.16316200;2024-01-30T04:59:24;10.20;99.90
19363;DHT22;9817;50.80926400;5.16316200;2024-01-30T05:01:49;10.30;99.90
19363;DHT22;9817;50.80926400;5.16316200;2024-01-30T05:04:15;10.30;99.90
19363;DHT22;9817;50.80926400;5.16316200;2024-01-30T05:06:41;10.30;99.90
19363;DHT22;9817;50.80926400;5.16316200;2024-01-30T05:09:06;10.30;99.90
19363;DHT22;9817;50.80926400;5.16316200;2024-01-30T05:11:37;10.30;99.90
19363;DHT22;9817;50.80926400;5.16316200;2024-01-30T05:14:03;10.40;99.90
19363;DHT22;9817;50.80926400;5.16316200;2024-01-30T05:16:29;10.40;99.90
19363;DHT22;9817;50.80926400;5.16316200;2024-01-30T05:18:54;10.30;99.90
19363;DHT22;9817;50.80926400;5.16316200;2024-01-30T05:21:20;10.40;99.90
19363;DHT22;9817;50.80926400;5.16316200;2024-01-30T05:23:46;10.30;99.90
19363;DHT22;9817;50.80926400;5.16316200;2024-01-30T05:26:11;10.40;99.90
19363;DHT22;9817;50.80926400;5.16316200;2024-01-30T05:28:37;10.30;99.90
19363;DHT22;9817;50.80926400;5.16316200;2024-01-30T05:31:03;10.30;99.90
19363;DHT22;9817;50.80926400;5.16316200;2024-01-30T05:33:29;10.40;99.90
19363;DHT22;9817;50.80926400;5.16316200;2024-01-30T05:35:54;10.30;99.90
19363;DHT22;9817;50.80926400;5.16316200;2024-01-30T05:38:20;10.20;99.90
19363;DHT22;9817;50.80926400;5.16316200;2024-01-30T05:40:46;10.20;99.90
19363;DHT22;9817;50.80926400;5.16316200;2024-01-30T05:43:12;10.30;99.90
19363;DHT22;9817;50.80926400;5.16316200;2024-01-30T05:45:37;10.40;99.90
19363;DHT22;9817;50.80926400;5.16316200;2024-01-30T05:48:03;10.50;99.90
19363;DHT22;9817;50.80926400;5.16316200;2024-01-30T05:50:29;10.50;99.90
19363;DHT22;9817;50.80926400;5.16316200;2024-01-30T05:52:55;10.40;99.90
19363;DHT22;9817;50.80926400;5.16316200;2024-01-30T05:55:21;10.50;99.90
19363;DHT22;9817;50.80926400;5.16316200;2024-01-30T05:57:46;10.60;99.90
19363;DHT22;9817;50.80926400;5.16316200;2024-01-30T06:00:12;10.70;99.90
19363;DHT22;9817;50.80926400;5.16316200;2024-01-30T06:02:38;10.70;99.90
19363;DHT22;9817;50.80926400;5.16316200;2024-01-30T06:05:04;10.80;99.90
19363;DHT22;9817;50.80926400;5.16316200;2024-01-30T06:07:30;11.10;99.90
19363;DHT22;9817;50.80926400;5.16316200;2024-01-30T06:09:55;11.20;99.90
19363;DHT22;9817;50.80926400;5.16316200;2024-01-30T06:12:21;11.10;99.90
19363;DHT22;9817;50.80926400;5.16316200;2024-01-30T06:14:47;11.00;99.90
19363;DHT22;9817;50.80926400;5.16316200;2024-01-30T06:17:12;10.90;99.90
19363;DHT22;9817;50.80926400;5.16316200;2024-01-30T06:19:39;10.90;99.90
19363;DHT22;9817;50.80926400;5.16316200;2024-01-30T06:22:05;11.00;99.90
19363;DHT22;9817;50.80926400;5.16316200;2024-01-30T06:24:30;11.00;99.90
19363;DHT22;9817;50.80926400;5.16316200;2024-01-30T06:26:56;11.00;99.90
19363;DHT22;9817;50.80926400;5.16316200;2024-01-30T06:29:22;11.20;99.90
19363;DHT22;9817;50.80926400;5.16316200;2024-01-30T06:31:50;11.10;99.90
19363;DHT22;9817;50.80926400;5.16316200;2024-01-30T06:34:16;11.10;99.90
19363;DHT22;9817;50.80926400;5.16316200;2024-01-30T06:36:41;11.20;99.90
19363;DHT22;9817;50.80926400;5.16316200;2024-01-30T06:39:07;11.40;99.90
19363;DHT22;9817;50.80926400;5.16316200;2024-01-30T06:41:33;11.40;99.90
19363;DHT22;9817;50.80926400;5.16316200;2024-01-30T06:43:58;11.40;99.90
19363;DHT22;9817;50.80926400;5.16316200;2024-01-30T06:46:24;11.40;99.90
19363;DHT22;9817;50.80926400;5.16316200;2024-01-30T06:48:50;11.30;99.90
19363;DHT22;9817;50.80926400;5.16316200;2024-01-30T06:51:15;11.30;99.90
19363;DHT22;9817;50.80926400;5.16316200;2024-01-30T06:53:41;11.40;99.90
19363;DHT22;9817;50.80926400;5.16316200;2024-01-30T06:56:08;11.50;99.90
19363;DHT22;9817;50.80926400;5.16316200;2024-01-30T06:58:33;11.30;99.90
19363;DHT22;9817;50.80926400;5.16316200;2024-01-30T07:00:59;11.40;99.90
19363;DHT22;9817;50.80926400;5.16316200;2024-01-30T07:03:25;11.40;99.90
19363;DHT22;9817;50.80926400;5.16316200;2024-01-30T07:05:50;11.40;99.90
19363;DHT22;9817;50.80926400;5.16316200;2024-01-30T07:08:17;11.40;99.90
19363;DHT22;9817;50.80926400;5.16316200;2024-01-30T07:10:43;11.40;99.90
19363;DHT22;9817;50.80926400;5.16316200;2024-01-30T07:13:10;11.60;99.90
19363;DHT22;9817;50.80926400;5.16316200;2024-01-30T07:15:35;11.40;99.90
19363;DHT22;9817;50.80926400;5.16316200;2024-01-30T07:18:02;11.40;99.90
19363;DHT22;9817;50.80926400;5.16316200;2024-01-30T07:20:28;11.50;99.90
19363;DHT22;9817;50.80926400;5.16316200;2024-01-30T07:22:55;11.60;99.90
19363;DHT22;9817;50.80926400;5.16316200;2024-01-30T07:25:21;11.60;99.90
19363;DHT22;9817;50.80926400;5.16316200;2024-01-30T07:27:47;11.60;99.90
19363;DHT22;9817;50.80926400;5.16316200;2024-01-30T07:30:12;11.50;99.90
19363;DHT22;9817;50.80926400;5.16316200;2024-01-30T07:32:38;11.50;99.90
19363;DHT22;9817;50.80926400;5.16316200;2024-01-30T07:35:04;11.50;99.90
19363;DHT22;9817;50.80926400;5.16316200;2024-01-30T07:37:30;11.50;99.90
19363;DHT22;9817;50.80926400;5.16316200;2024-01-30T07:39:55;11.50;99.90
19363;DHT22;9817;50.80926400;5.16316200;2024-01-30T07:42:21;11.60;99.90
19363;DHT22;9817;50.80926400;5.16316200;2024-01-30T07:44:46;11.60;99.90
19363;DHT22;9817;50.80926400;5.16316200;2024-01-30T07:47:12;11.70;99.90
19363;DHT22;9817;50.80926400;5.16316200;2024-01-30T07:49:38;11.80;99.90
19363;DHT22;9817;50.80926400;5.16316200;2024-01-30T07:52:04;11.70;99.90
19363;DHT22;9817;50.80926400;5.16316200;2024-01-30T07:54:30;11.70;99.90
19363;DHT22;9817;50.80926400;5.16316200;2024-01-30T07:56:59;11.80;99.90
19363;DHT22;9817;50.80926400;5.16316200;2024-01-30T07:59:25;11.80;99.90
19363;DHT22;9817;50.80926400;5.16316200;2024-01-30T08:01:51;11.70;99.90
19363;DHT22;9817;50.80926400;5.16316200;2024-01-30T08:04:17;11.80;99.90
19363;DHT22;9817;50.80926400;5.16316200;2024-01-30T08:06:43;11.80;99.90
19363;DHT22;9817;50.80926400;5.16316200;2024-01-30T08:09:08;11.80;99.90
19363;DHT22;9817;50.80926400;5.16316200;2024-01-30T08:11:34;11.80;99.90
19363;DHT22;9817;50.80926400;5.16316200;2024-01-30T08:13:59;11.80;99.90
19363;DHT22;9817;50.80926400;5.16316200;2024-01-30T08:16:25;11.80;99.90
19363;DHT22;9817;50.80926400;5.16316200;2024-01-30T08:18:51;11.90;99.90
19363;DHT22;9817;50.80926400;5.16316200;2024-01-30T08:21:18;11.90;99.90
19363;DHT22;9817;50.80926400;5.16316200;2024-01-30T08:23:44;12.00;99.90
19363;DHT22;9817;50.80926400;5.16316200;2024-01-30T08:26:10;11.80;99.90
19363;DHT22;9817;50.80926400;5.16316200;2024-01-30T08:28:35;11.80;99.90
19363;DHT22;9817;50.80926400;5.16316200;2024-01-30T08:31:01;11.80;99.90
19363;DHT22;9817;50.80926400;5.16316200;2024-01-30T08:33:26;11.80;99.90
19363;DHT22;9817;50.80926400;5.16316200;2024-01-30T08:35:52;11.80;99.90
19363;DHT22;9817;50.80926400;5.16316200;2024-01-30T08:38:18;11.80;99.90
19363;DHT22;9817;50.80926400;5.16316200;2024-01-30T08:40:43;11.80;99.90
19363;DHT22;9817;50.80926400;5.16316200;2024-01-30T08:43:09;12.00;99.90
19363;DHT22;9817;50.80926400;5.16316200;2024-01-30T08:45:35;12.00;99.90
19363;DHT22;9817;50.80926400;5.16316200;2024-01-30T08:48:01;12.10;99.90
19363;DHT22;9817;50.80926400;5.16316200;2024-01-30T08:50:26;12.00;99.90
19363;DHT22;9817;50.80926400;5.16316200;2024-01-30T08:52:52;12.00;99.90
19363;DHT22;9817;50.80926400;5.16316200;2024-01-30T08:55:18;11.90;99.90
19363;DHT22;9817;50.80926400;5.16316200;2024-01-30T08:57:44;12.00;99.90
19363;DHT22;9817;50.80926400;5.16316200;2024-01-30T09:00:10;11.80;99.90
19363;DHT22;9817;50.80926400;5.16316200;2024-01-30T09:02:36;11.90;99.90
19363;DHT22;9817;50.80926400;5.16316200;2024-01-30T09:05:02;12.10;99.90
19363;DHT22;9817;50.80926400;5.16316200;2024-01-30T09:07:28;11.90;99.90
19363;DHT22;9817;50.80926400;5.16316200;2024-01-30T09:09:53;12.10;99.90
19363;DHT22;9817;50.80926400;5.16316200;2024-01-30T09:12:19;12.10;99.90
19363;DHT22;9817;50.80926400;5.16316200;2024-01-30T09:14:45;12.10;99.90
19363;DHT22;9817;50.80926400;5.16316200;2024-01-30T09:17:10;12.10;99.90
19363;DHT22;9817;50.80926400;5.16316200;2024-01-30T09:19:36;12.20;99.90
19363;DHT22;9817;50.80926400;5.16316200;2024-01-30T09:22:02;12.20;99.90
19363;DHT22;9817;50.80926400;5.16316200;2024-01-30T09:24:27;12.10;99.90
19363;DHT22;9817;50.80926400;5.16316200;2024-01-30T09:26:53;12.00;99.90
19363;DHT22;9817;50.80926400;5.16316200;2024-01-30T09:29:19;12.00;99.90
19363;DHT22;9817;50.80926400;5.16316200;2024-01-30T09:31:47;12.30;99.90
19363;DHT22;9817;50.80926400;5.16316200;2024-01-30T09:34:13;12.40;99.90
19363;DHT22;9817;50.80926400;5.16316200;2024-01-30T09:36:39;12.30;99.90
19363;DHT22;9817;50.80926400;5.16316200;2024-01-30T09:39:05;12.30;99.90
19363;DHT22;9817;50.80926400;5.16316200;2024-01-30T09:41:44;12.40;99.90
19363;DHT22;9817;50.80926400;5.16316200;2024-01-30T09:44:11;12.60;99.90
19363;DHT22;9817;50.80926400;5.16316200;2024-01-30T09:46:38;12.80;99.90
19363;DHT22;9817;50.80926400;5.16316200;2024-01-30T09:49:04;12.90;99.90
19363;DHT22;9817;50.80926400;5.16316200;2024-01-30T09:51:31;12.90;99.90
19363;DHT22;9817;50.80926400;5.16316200;2024-01-30T09:53:57;12.90;99.90
19363;DHT22;9817;50.80926400;5.16316200;2024-01-30T09:56:23;13.00;99.90
19363;DHT22;9817;50.80926400;5.16316200;2024-01-30T09:58:48;13.00;99.90
19363;DHT22;9817;50.80926400;5.16316200;2024-01-30T10:01:15;13.20;99.90
19363;DHT22;9817;50.80926400;5.16316200;2024-01-30T10:03:44;13.00;99.90
19363;DHT22;9817;50.80926400;5.16316200;2024-01-30T10:06:10;13.10;99.90
19363;DHT22;9817;50.80926400;5.16316200;2024-01-30T10:08:36;13.00;99.90
19363;DHT22;9817;50.80926400;5.16316200;2024-01-30T10:11:01;12.90;99.90
19363;DHT22;9817;50.80926400;5.16316200;2024-01-30T10:13:28;13.10;99.90
19363;DHT22;9817;50.80926400;5.16316200;2024-01-30T10:15:55;13.20;99.90
19363;DHT22;9817;50.80926400;5.16316200;2024-01-30T10:18:22;13.10;99.90
19363;DHT22;9817;50.80926400;5.16316200;2024-01-30T10:20:49;13.30;99.90
19363;DHT22;9817;50.80926400;5.16316200;2024-01-30T10:23:14;13.30;99.90
19363;DHT22;9817;50.80926400;5.16316200;2024-01-30T10:25:40;13.10;99.90
19363;DHT22;9817;50.80926400;5.16316200;2024-01-30T10:28:06;13.20;99.90
19363;DHT22;9817;50.80926400;5.16316200;2024-01-30T10:30:31;13.20;99.90
19363;DHT22;9817;50.80926400;5.16316200;2024-01-30T10:32:57;13.20;99.90
19363;DHT22;9817;50.80926400;5.16316200;2024-01-30T10:35:23;13.10;99.90
19363;DHT22;9817;50.80926400;5.16316200;2024-01-30T10:37:49;13.10;99.90
19363;DHT22;9817;50.80926400;5.16316200;2024-01-30T10:40:15;13.10;99.90
19363;DHT22;9817;50.80926400;5.16316200;2024-01-30T10:42:45;13.10;99.90
19363;DHT22;9817;50.80926400;5.16316200;2024-01-30T10:45:12;13.20;99.90
19363;DHT22;9817;50.80926400;5.16316200;2024-01-30T10:47:40;13.20;99.90
19363;DHT22;9817;50.80926400;5.16316200;2024-01-30T10:50:07;13.30;99.90
19363;DHT22;9817;50.80926400;5.16316200;2024-01-30T10:52:34;13.30;99.90
19363;DHT22;9817;50.80926400;5.16316200;2024-01-30T10:55:00;13.30;99.90
19363;DHT22;9817;50.80926400;5.16316200;2024-01-30T10:57:27;13.20;99.90
19363;DHT22;9817;50.80926400;5.16316200;2024-01-30T11:00:04;13.30;99.90
19363;DHT22;9817;50.80926400;5.16316200;2024-01-30T11:02:39;13.20;99.90
19363;DHT22;9817;50.80926400;5.16316200;2024-01-30T11:05:05;13.00;99.90
19363;DHT22;9817;50.80926400;5.16316200;2024-01-30T11:07:31;13.00;99.90
19363;DHT22;9817;50.80926400;5.16316200;2024-01-30T11:10:04;12.90;99.90
19363;DHT22;9817;50.80926400;5.16316200;2024-01-30T11:12:32;12.80;99.90
19363;DHT22;9817;50.80926400;5.16316200;2024-01-30T11:15:09;12.90;99.90
19363;DHT22;9817;50.80926400;5.16316200;2024-01-30T11:20:16;13.20;99.90
19363;DHT22;9817;50.80926400;5.16316200;2024-01-30T11:22:48;13.20;99.90
19363;DHT22;9817;50.80926400;5.16316200;2024-01-30T11:25:14;13.20;99.90
19363;DHT22;9817;50.80926400;5.16316200;2024-01-30T11:27:42;13.20;99.90
19363;DHT22;9817;50.80926400;5.16316200;2024-01-30T11:30:08;13.20;99.90
19363;DHT22;9817;50.80926400;5.16316200;2024-01-30T11:32:34;13.20;99.90
19363;DHT22;9817;50.80926400;5.16316200;2024-01-30T11:35:00;13.20;99.90
19363;DHT22;9817;50.80926400;5.16316200;2024-01-30T11:37:26;13.20;99.90
19363;DHT22;9817;50.80926400;5.16316200;2024-01-30T11:39:53;13.10;99.90
19363;DHT22;9817;50.80926400;5.16316200;2024-01-30T11:42:19;13.20;99.90
19363;DHT22;9817;50.80926400;5.16316200;2024-01-30T11:44:47;13.10;99.90
19363;DHT22;9817;50.80926400;5.16316200;2024-01-30T11:47:14;13.00;99.90
19363;DHT22;9817;50.80926400;5.16316200;2024-01-30T11:49:40;13.00;99.90
19363;DHT22;9817;50.80926400;5.16316200;2024-01-30T11:52:06;13.10;99.90
19363;DHT22;9817;50.80926400;5.16316200;2024-01-30T11:54:32;13.10;99.90
19363;DHT22;9817;50.80926400;5.16316200;2024-01-30T11:56:57;13.00;99.90
19363;DHT22;9817;50.80926400;5.16316200;2024-01-30T11:59:24;12.90;99.90
19363;DHT22;9817;50.80926400;5.16316200;2024-01-30T12:01:52;12.90;99.90
19363;DHT22;9817;50.80926400;5.16316200;2024-01-30T12:04:18;12.90;99.90
19363;DHT22;9817;50.80926400;5.16316200;2024-01-30T12:06:43;13.00;99.90
19363;DHT22;9817;50.80926400;5.16316200;2024-01-30T12:09:09;13.20;99.90
19363;DHT22;9817;50.80926400;5.16316200;2024-01-30T12:11:47;13.30;99.90
19363;DHT22;9817;50.80926400;5.16316200;2024-01-30T12:14:13;13.50;99.90
19363;DHT22;9817;50.80926400;5.16316200;2024-01-30T12:16:39;13.50;99.90
19363;DHT22;9817;50.80926400;5.16316200;2024-01-30T12:19:05;13.50;99.90
19363;DHT22;9817;50.80926400;5.16316200;2024-01-30T12:21:31;13.30;99.90
19363;DHT22;9817;50.80926400;5.16316200;2024-01-30T12:23:57;13.30;99.90
19363;DHT22;9817;50.80926400;5.16316200;2024-01-30T12:26:26;13.30;99.90
19363;DHT22;9817;50.80926400;5.16316200;2024-01-30T12:28:55;13.20;99.90
19363;DHT22;9817;50.80926400;5.16316200;2024-01-30T12:31:32;13.40;99.90
19363;DHT22;9817;50.80926400;5.16316200;2024-01-30T12:33:59;13.50;99.90
19363;DHT22;9817;50.80926400;5.16316200;2024-01-30T12:36:25;13.50;99.90
19363;DHT22;9817;50.80926400;5.16316200;2024-01-30T12:38:51;13.50;99.90
19363;DHT22;9817;50.80926400;5.16316200;2024-01-30T12:41:17;13.60;99.90
19363;DHT22;9817;50.80926400;5.16316200;2024-01-30T12:43:43;13.60;99.90
19363;DHT22;9817;50.80926400;5.16316200;2024-01-30T12:46:10;13.60;99.90
19363;DHT22;9817;50.80926400;5.16316200;2024-01-30T12:48:35;13.60;99.90
19363;DHT22;9817;50.80926400;5.16316200;2024-01-30T12:51:01;13.60;99.90
19363;DHT22;9817;50.80926400;5.16316200;2024-01-30T12:53:27;13.60;99.90
19363;DHT22;9817;50.80926400;5.16316200;2024-01-30T12:55:53;13.50;99.90
19363;DHT22;9817;50.80926400;5.16316200;2024-01-30T12:58:20;13.50;99.90
19363;DHT22;9817;50.80926400;5.16316200;2024-01-30T13:00:46;13.40;99.90
19363;DHT22;9817;50.80926400;5.16316200;2024-01-30T13:03:13;13.40;99.90
19363;DHT22;9817;50.80926400;5.16316200;2024-01-30T13:05:39;13.30;99.90
19363;DHT22;9817;50.80926400;5.16316200;2024-01-30T13:08:05;13.20;99.90
19363;DHT22;9817;50.80926400;5.16316200;2024-01-30T13:10:31;13.30;99.90
19363;DHT22;9817;50.80926400;5.16316200;2024-01-30T13:12:56;13.30;99.90
19363;DHT22;9817;50.80926400;5.16316200;2024-01-30T13:15:22;13.30;99.90
19363;DHT22;9817;50.80926400;5.16316200;2024-01-30T13:17:48;13.40;99.90
19363;DHT22;9817;50.80926400;5.16316200;2024-01-30T13:20:15;13.40;99.90
19363;DHT22;9817;50.80926400;5.16316200;2024-01-30T13:22:44;13.50;99.90
19363;DHT22;9817;50.80926400;5.16316200;2024-01-30T13:25:10;13.50;99.90
19363;DHT22;9817;50.80926400;5.16316200;2024-01-30T13:27:37;13.40;99.90
19363;DHT22;9817;50.80926400;5.16316200;2024-01-30T13:30:03;13.10;99.90
19363;DHT22;9817;50.80926400;5.16316200;2024-01-30T13:32:29;13.00;99.90